sensor_id;sensor_type;location;lat;lon;timestamp;temperature;humidity
8892;DHT22;4482;54.332;10.118;2023-12-07T00:02:09;2.20;99.90
8892;DHT22;4482;54.332;10.118;2023-12-07T00:04:37;2.10;99.90
8892;DHT22;4482;54.332;10.118;2023-12-07T00:07:04;2.10;99.90
8892;DHT22;4482;54.332;10.118;2023-12-07T00:09:32;2.10;99.90
8892;DHT22;4482;54.332;10.118;2023-12-07T00:11:59;2.00;99.90
8892;DHT22;4482;54.332;10.118;2023-12-07T00:14:25;2.00;99.90
8892;DHT22;4482;54.332;10.118;2023-12-07T00:16:52;2.00;99.90
8892;DHT22;4482;54.332;10.118;2023-12-07T00:19:19;1.90;99.90
8892;DHT22;4482;54.332;10.118;2023-12-07T00:21:46;1.90;99.90
8892;DHT22;4482;54.332;10.118;2023-12-07T00:24:12;1.90;99.90
8892;DHT22;4482;54.332;10.118;2023-12-07T00:26:40;1.90;99.90
8892;DHT22;4482;54.332;10.118;2023-12-07T00:29:07;1.90;99.90
8892;DHT22;4482;54.332;10.118;2023-12-07T00:31:34;2.00;99.90
8892;DHT22;4482;54.332;10.118;2023-12-07T00:34:00;2.10;99.90
8892;DHT22;4482;54.332;10.118;2023-12-07T00:36:27;2.10;99.90
8892;DHT22;4482;54.332;10.118;2023-12-07T00:38:54;2.10;99.90
8892;DHT22;4482;54.332;10.118;2023-12-07T00:41:21;2.10;99.90
8892;DHT22;4482;54.332;10.118;2023-12-07T00:43:49;2.10;99.90
8892;DHT22;4482;54.332;10.118;2023-12-07T00:46:15;2.10;99.90
8892;DHT22;4482;54.332;10.118;2023-12-07T00:48:42;2.10;99.90
8892;DHT22;4482;54.332;10.118;2023-12-07T00:51:09;2.10;99.90
8892;DHT22;4482;54.332;10.118;2023-12-07T00:53:36;2.20;99.90
8892;DHT22;4482;54.332;10.118;2023-12-07T00:56:03;2.10;99.90
8892;DHT22;4482;54.332;10.118;2023-12-07T00:58:30;2.20;99.90
8892;DHT22;4482;54.332;10.118;2023-12-07T01:00:58;2.10;99.90
8892;DHT22;4482;54.332;10.118;2023-12-07T01:03:25;2.10;99.90
8892;DHT22;4482;54.332;10.118;2023-12-07T01:05:52;2.10;99.90
8892;DHT22;4482;54.332;10.118;2023-12-07T01:08:18;2.10;99.90
8892;DHT22;4482;54.332;10.118;2023-12-07T01:10:45;2.10;99.90
8892;DHT22;4482;54.332;10.118;2023-12-07T01:13:12;2.10;99.90
8892;DHT22;4482;54.332;10.118;2023-12-07T01:15:38;2.10;99.90
8892;DHT22;4482;54.332;10.118;2023-12-07T01:18:06;2.10;99.90
8892;DHT22;4482;54.332;10.118;2023-12-07T01:20:33;2.10;99.90
8892;DHT22;4482;54.332;10.118;2023-12-07T01:23:00;2.10;99.90
8892;DHT22;4482;54.332;10.118;2023-12-07T01:25:26;2.10;99.90
8892;DHT22;4482;54.332;10.118;2023-12-07T01:27:53;2.10;99.90
8892;DHT22;4482;54.332;10.118;2023-12-07T01:30:20;2.10;99.90
8892;DHT22;4482;54.332;10.118;2023-12-07T01:32:47;2.00;99.90
8892;DHT22;4482;54.332;10.118;2023-12-07T01:35:15;2.10;99.90
8892;DHT22;4482;54.332;10.118;2023-12-07T01:37:42;2.00;99.90
8892;DHT22;4482;54.332;10.118;2023-12-07T01:40:08;2.00;99.90
8892;DHT22;4482;54.332;10.118;2023-12-07T01:42:36;2.00;99.90
8892;DHT22;4482;54.332;10.118;2023-12-07T01:45:03;2.10;99.90
8892;DHT22;4482;54.332;10.118;2023-12-07T01:47:30;2.00;99.90
8892;DHT22;4482;54.332;10.118;2023-12-07T01:49:57;2.10;99.90
8892;DHT22;4482;54.332;10.118;2023-12-07T01:52:26;2.10;99.90
8892;DHT22;4482;54.332;10.118;2023-12-07T01:54:54;2.10;99.90
8892;DHT22;4482;54.332;10.118;2023-12-07T01:57:21;2.10;99.90
8892;DHT22;4482;54.332;10.118;2023-12-07T01:59:48;2.10;99.90
8892;DHT22;4482;54.332;10.118;2023-12-07T02:02:15;2.10;99.90
8892;DHT22;4482;54.332;10.118;2023-12-07T02:04:42;2.10;99.90
8892;DHT22;4482;54.332;10.118;2023-12-07T02:07:08;2.10;99.90
8892;DHT22;4482;54.332;10.118;2023-12-07T02:09:36;2.10;99.90
8892;DHT22;4482;54.332;10.118;2023-12-07T02:12:04;2.10;99.90
8892;DHT22;4482;54.332;10.118;2023-12-07T02:14:30;2.10;99.90
8892;DHT22;4482;54.332;10.118;2023-12-07T02:17:01;2.10;99.90
8892;DHT22;4482;54.332;10.118;2023-12-07T02:19:37;2.10;99.90
8892;DHT22;4482;54.332;10.118;2023-12-07T02:22:08;2.10;99.90
8892;DHT22;4482;54.332;10.118;2023-12-07T02:24:37;2.10;99.90
8892;DHT22;4482;54.332;10.118;2023-12-07T02:27:06;2.10;99.90
8892;DHT22;4482;54.332;10.118;2023-12-07T02:29:33;2.10;99.90
8892;DHT22;4482;54.332;10.118;2023-12-07T02:31:59;2.10;99.90
8892;DHT22;4482;54.332;10.118;2023-12-07T02:34:26;2.10;99.90
8892;DHT22;4482;54.332;10.118;2023-12-07T02:36:53;2.10;99.90
8892;DHT22;4482;54.332;10.118;2023-12-07T02:39:20;2.10;99.90
8892;DHT22;4482;54.332;10.118;2023-12-07T02:41:47;2.10;99.90
8892;DHT22;4482;54.332;10.118;2023-12-07T02:44:16;2.10;99.90
8892;DHT22;4482;54.332;10.118;2023-12-07T02:46:43;2.10;99.90
8892;DHT22;4482;54.332;10.118;2023-12-07T02:49:12;2.00;99.90
8892;DHT22;4482;54.332;10.118;2023-12-07T02:51:39;2.10;99.90
8892;DHT22;4482;54.332;10.118;2023-12-07T02:54:05;2.10;99.90
8892;DHT22;4482;54.332;10.118;2023-12-07T02:56:32;2.10;99.90
8892;DHT22;4482;54.332;10.118;2023-12-07T02:58:59;2.10;99.90
8892;DHT22;4482;54.332;10.118;2023-12-07T03:01:27;2.10;99.90
8892;DHT22;4482;54.332;10.118;2023-12-07T03:03:53;2.20;99.90
8892;DHT22;4482;54.332;10.118;2023-12-07T03:06:20;2.20;99.90
8892;DHT22;4482;54.332;10.118;2023-12-07T03:08:47;2.20;99.90
8892;DHT22;4482;54.332;10.118;2023-12-07T03:11:13;2.20;99.90
8892;DHT22;4482;54.332;10.118;2023-12-07T03:13:40;2.10;99.90
8892;DHT22;4482;54.332;10.118;2023-12-07T03:16:07;2.20;99.90
8892;DHT22;4482;54.332;10.118;2023-12-07T03:18:36;2.20;99.90
8892;DHT22;4482;54.332;10.118;2023-12-07T03:21:03;2.20;99.90
8892;DHT22;4482;54.332;10.118;2023-12-07T03:23:29;2.20;99.90
8892;DHT22;4482;54.332;10.118;2023-12-07T03:25:56;2.10;99.90
8892;DHT22;4482;54.332;10.118;2023-12-07T03:28:23;2.10;99.90
8892;DHT22;4482;54.332;10.118;2023-12-07T03:30:49;2.10;99.90
8892;DHT22;4482;54.332;10.118;2023-12-07T03:33:16;2.10;99.90
8892;DHT22;4482;54.332;10.118;2023-12-07T03:35:44;2.10;99.90
8892;DHT22;4482;54.332;10.118;2023-12-07T03:38:11;2.10;99.90
8892;DHT22;4482;54.332;10.118;2023-12-07T03:40:38;2.10;99.90
8892;DHT22;4482;54.332;10.118;2023-12-07T03:43:05;2.10;99.90
8892;DHT22;4482;54.332;10.118;2023-12-07T03:45:31;2.10;99.90
8892;DHT22;4482;54.332;10.118;2023-12-07T03:47:58;2.10;99.90
8892;DHT22;4482;54.332;10.118;2023-12-07T03:50:25;2.10;99.90
8892;DHT22;4482;54.332;10.118;2023-12-07T03:52:53;2.10;99.90
8892;DHT22;4482;54.332;10.118;2023-12-07T03:55:19;2.10;99.90
8892;DHT22;4482;54.332;10.118;2023-12-07T03:57:46;2.00;99.90
8892;DHT22;4482;54.332;10.118;2023-12-07T04:00:13;2.00;99.90
8892;DHT22;4482;54.332;10.118;2023-12-07T04:02:40;2.00;99.90
8892;DHT22;4482;54.332;10.118;2023-12-07T04:05:06;2.10;99.90
8892;DHT22;4482;54.332;10.118;2023-12-07T04:07:34;2.00;99.90
8892;DHT22;4482;54.332;10.118;2023-12-07T04:10:02;2.10;99.90
8892;DHT22;4482;54.332;10.118;2023-12-07T04:12:31;2.10;99.90
8892;DHT22;4482;54.332;10.118;2023-12-07T04:14:57;2.10;99.90
8892;DHT22;4482;54.332;10.118;2023-12-07T04:17:24;2.10;99.90
8892;DHT22;4482;54.332;10.118;2023-12-07T04:19:51;2.10;99.90
8892;DHT22;4482;54.332;10.118;2023-12-07T04:22:17;2.10;99.90
8892;DHT22;4482;54.332;10.118;2023-12-07T04:24:44;2.10;99.90
8892;DHT22;4482;54.332;10.118;2023-12-07T04:27:12;2.10;99.90
8892;DHT22;4482;54.332;10.118;2023-12-07T04:29:39;2.10;99.90
8892;DHT22;4482;54.332;10.118;2023-12-07T04:32:06;2.20;99.90
8892;DHT22;4482;54.332;10.118;2023-12-07T04:34:33;2.10;99.90
8892;DHT22;4482;54.332;10.118;2023-12-07T04:37:00;2.10;99.90
8892;DHT22;4482;54.332;10.118;2023-12-07T04:39:26;2.10;99.90
8892;DHT22;4482;54.332;10.118;2023-12-07T04:41:54;2.10;99.90
8892;DHT22;4482;54.332;10.118;2023-12-07T04:44:22;2.10;99.90
8892;DHT22;4482;54.332;10.118;2023-12-07T04:46:50;2.20;99.90
8892;DHT22;4482;54.332;10.118;2023-12-07T04:49:17;2.20;99.90
8892;DHT22;4482;54.332;10.118;2023-12-07T04:51:44;2.10;99.90
8892;DHT22;4482;54.332;10.118;2023-12-07T04:54:12;2.20;99.90
8892;DHT22;4482;54.332;10.118;2023-12-07T04:56:40;2.20;99.90
8892;DHT22;4482;54.332;10.118;2023-12-07T04:59:06;2.20;99.90
8892;DHT22;4482;54.332;10.118;2023-12-07T05:01:35;2.20;99.90
8892;DHT22;4482;54.332;10.118;2023-12-07T05:04:02;2.20;99.90
8892;DHT22;4482;54.332;10.118;2023-12-07T05:06:29;2.20;99.90
8892;DHT22;4482;54.332;10.118;2023-12-07T05:08:55;2.20;99.90
8892;DHT22;4482;54.332;10.118;2023-12-07T05:11:22;2.20;99.90
8892;DHT22;4482;54.332;10.118;2023-12-07T05:13:49;2.20;99.90
8892;DHT22;4482;54.332;10.118;2023-12-07T05:16:15;2.30;99.90
8892;DHT22;4482;54.332;10.118;2023-12-07T05:18:43;2.30;99.90
8892;DHT22;4482;54.332;10.118;2023-12-07T05:21:10;2.30;99.90
8892;DHT22;4482;54.332;10.118;2023-12-07T05:23:37;2.30;99.90
8892;DHT22;4482;54.332;10.118;2023-12-07T05:26:04;2.30;99.90
8892;DHT22;4482;54.332;10.118;2023-12-07T05:28:33;2.20;99.90
8892;DHT22;4482;54.332;10.118;2023-12-07T05:31:00;2.20;99.90
8892;DHT22;4482;54.332;10.118;2023-12-07T05:33:26;2.30;99.90
8892;DHT22;4482;54.332;10.118;2023-12-07T05:35:55;2.30;99.90
8892;DHT22;4482;54.332;10.118;2023-12-07T05:38:21;2.30;99.90
8892;DHT22;4482;54.332;10.118;2023-12-07T05:40:48;2.30;99.90
8892;DHT22;4482;54.332;10.118;2023-12-07T05:43:15;2.30;99.90
8892;DHT22;4482;54.332;10.118;2023-12-07T05:45:41;2.30;99.90
8892;DHT22;4482;54.332;10.118;2023-12-07T05:48:08;2.30;99.90
8892;DHT22;4482;54.332;10.118;2023-12-07T05:50:35;2.20;99.90
8892;DHT22;4482;54.332;10.118;2023-12-07T05:53:06;2.20;99.90
8892;DHT22;4482;54.332;10.118;2023-12-07T05:55:32;2.20;99.90
8892;DHT22;4482;54.332;10.118;2023-12-07T05:57:59;2.30;99.90
8892;DHT22;4482;54.332;10.118;2023-12-07T06:00:26;2.30;99.90
8892;DHT22;4482;54.332;10.118;2023-12-07T06:02:52;2.60;99.90
8892;DHT22;4482;54.332;10.118;2023-12-07T06:05:19;2.80;99.90
8892;DHT22;4482;54.332;10.118;2023-12-07T06:07:46;2.60;99.90
8892;DHT22;4482;54.332;10.118;2023-12-07T06:10:14;2.60;99.90
8892;DHT22;4482;54.332;10.118;2023-12-07T06:12:42;2.50;99.90
8892;DHT22;4482;54.332;10.118;2023-12-07T06:15:09;2.50;99.90
8892;DHT22;4482;54.332;10.118;2023-12-07T06:17:36;2.40;99.90
8892;DHT22;4482;54.332;10.118;2023-12-07T06:20:03;2.40;99.90
8892;DHT22;4482;54.332;10.118;2023-12-07T06:22:30;2.40;99.90
8892;DHT22;4482;54.332;10.118;2023-12-07T06:24:56;2.40;99.90
8892;DHT22;4482;54.332;10.118;2023-12-07T06:27:24;2.40;99.90
8892;DHT22;4482;54.332;10.118;2023-12-07T06:29:51;2.40;99.90
8892;DHT22;4482;54.332;10.118;2023-12-07T06:32:18;2.40;99.90
8892;DHT22;4482;54.332;10.118;2023-12-07T06:34:44;2.30;99.90
8892;DHT22;4482;54.332;10.118;2023-12-07T06:37:11;2.30;99.90
8892;DHT22;4482;54.332;10.118;2023-12-07T06:39:38;2.40;99.90
8892;DHT22;4482;54.332;10.118;2023-12-07T06:42:05;2.40;99.90
8892;DHT22;4482;54.332;10.118;2023-12-07T06:44:33;2.40;99.90
8892;DHT22;4482;54.332;10.118;2023-12-07T06:46:59;2.40;99.90
8892;DHT22;4482;54.332;10.118;2023-12-07T06:49:28;2.40;99.90
8892;DHT22;4482;54.332;10.118;2023-12-07T06:51:55;2.30;99.90
8892;DHT22;4482;54.332;10.118;2023-12-07T06:54:21;2.30;99.90
8892;DHT22;4482;54.332;10.118;2023-12-07T06:56:48;2.30;99.90
8892;DHT22;4482;54.332;10.118;2023-12-07T06:59:15;2.30;99.90
8892;DHT22;4482;54.332;10.118;2023-12-07T07:01:43;2.40;99.90
8892;DHT22;4482;54.332;10.118;2023-12-07T07:04:09;2.60;99.90
8892;DHT22;4482;54.332;10.118;2023-12-07T07:06:38;2.60;99.90
8892;DHT22;4482;54.332;10.118;2023-12-07T07:09:04;2.70;99.90
8892;DHT22;4482;54.332;10.118;2023-12-07T07:11:31;2.70;99.90
8892;DHT22;4482;54.332;10.118;2023-12-07T07:13:58;2.60;99.90
8892;DHT22;4482;54.332;10.118;2023-12-07T07:16:24;2.70;99.90
8892;DHT22;4482;54.332;10.118;2023-12-07T07:18:52;2.60;99.90
8892;DHT22;4482;54.332;10.118;2023-12-07T07:21:19;2.50;99.90
8892;DHT22;4482;54.332;10.118;2023-12-07T07:23:46;2.40;99.90
8892;DHT22;4482;54.332;10.118;2023-12-07T07:26:13;2.40;99.90
8892;DHT22;4482;54.332;10.118;2023-12-07T07:28:42;2.30;99.90
8892;DHT22;4482;54.332;10.118;2023-12-07T07:31:08;2.30;99.90
8892;DHT22;4482;54.332;10.118;2023-12-07T07:33:36;2.20;99.90
8892;DHT22;4482;54.332;10.118;2023-12-07T07:36:04;2.20;99.90
8892;DHT22;4482;54.332;10.118;2023-12-07T07:38:31;2.20;99.90
8892;DHT22;4482;54.332;10.118;2023-12-07T07:40:57;2.20;99.90
8892;DHT22;4482;54.332;10.118;2023-12-07T07:43:24;2.20;99.90
8892;DHT22;4482;54.332;10.118;2023-12-07T07:45:51;2.20;99.90
8892;DHT22;4482;54.332;10.118;2023-12-07T07:48:17;2.20;99.90
8892;DHT22;4482;54.332;10.118;2023-12-07T07:50:44;2.20;99.90
8892;DHT22;4482;54.332;10.118;2023-12-07T07:53:12;2.20;99.90
8892;DHT22;4482;54.332;10.118;2023-12-07T07:55:39;2.20;99.90
8892;DHT22;4482;54.332;10.118;2023-12-07T07:58:05;2.30;99.90
8892;DHT22;4482;54.332;10.118;2023-12-07T08:00:32;2.30;99.90
8892;DHT22;4482;54.332;10.118;2023-12-07T08:02:59;2.40;99.90
8892;DHT22;4482;54.332;10.118;2023-12-07T08:05:26;2.40;99.90
8892;DHT22;4482;54.332;10.118;2023-12-07T08:07:53;2.40;99.90
8892;DHT22;4482;54.332;10.118;2023-12-07T08:10:21;2.40;99.90
8892;DHT22;4482;54.332;10.118;2023-12-07T08:12:49;2.50;99.90
8892;DHT22;4482;54.332;10.118;2023-12-07T08:15:16;2.40;99.90
8892;DHT22;4482;54.332;10.118;2023-12-07T08:17:42;2.40;99.90
8892;DHT22;4482;54.332;10.118;2023-12-07T08:20:09;2.40;99.90
8892;DHT22;4482;54.332;10.118;2023-12-07T08:22:36;2.40;99.90
8892;DHT22;4482;54.332;10.118;2023-12-07T08:25:04;2.40;99.90
8892;DHT22;4482;54.332;10.118;2023-12-07T08:27:32;2.40;99.90
8892;DHT22;4482;54.332;10.118;2023-12-07T08:29:59;2.40;99.90
8892;DHT22;4482;54.332;10.118;2023-12-07T08:32:26;2.50;99.90
8892;DHT22;4482;54.332;10.118;2023-12-07T08:34:53;2.50;99.90
8892;DHT22;4482;54.332;10.118;2023-12-07T08:37:20;2.50;99.90
8892;DHT22;4482;54.332;10.118;2023-12-07T08:39:46;2.60;99.90
8892;DHT22;4482;54.332;10.118;2023-12-07T08:42:13;2.70;99.90
8892;DHT22;4482;54.332;10.118;2023-12-07T08:44:42;2.60;99.90
8892;DHT22;4482;54.332;10.118;2023-12-07T08:47:08;2.70;99.90
8892;DHT22;4482;54.332;10.118;2023-12-07T08:49:37;2.70;99.90
8892;DHT22;4482;54.332;10.118;2023-12-07T08:52:04;2.90;99.90
8892;DHT22;4482;54.332;10.118;2023-12-07T08:54:31;3.10;99.90
8892;DHT22;4482;54.332;10.118;2023-12-07T08:56:59;3.20;99.90
8892;DHT22;4482;54.332;10.118;2023-12-07T08:59:25;3.20;99.90
8892;DHT22;4482;54.332;10.118;2023-12-07T09:01:53;3.20;99.90
8892;DHT22;4482;54.332;10.118;2023-12-07T09:04:20;3.30;99.90
8892;DHT22;4482;54.332;10.118;2023-12-07T09:06:47;3.30;99.90
8892;DHT22;4482;54.332;10.118;2023-12-07T09:09:13;3.40;99.90
8892;DHT22;4482;54.332;10.118;2023-12-07T09:11:40;3.30;99.90
8892;DHT22;4482;54.332;10.118;2023-12-07T09:14:07;3.20;99.90
8892;DHT22;4482;54.332;10.118;2023-12-07T09:16:34;3.40;99.90
8892;DHT22;4482;54.332;10.118;2023-12-07T09:19:02;3.80;99.90
8892;DHT22;4482;54.332;10.118;2023-12-07T09:21:29;3.60;99.90
8892;DHT22;4482;54.332;10.118;2023-12-07T09:23:55;3.40;99.90
8892;DHT22;4482;54.332;10.118;2023-12-07T09:26:22;3.30;99.90
8892;DHT22;4482;54.332;10.118;2023-12-07T09:28:49;3.20;99.90
8892;DHT22;4482;54.332;10.118;2023-12-07T09:31:15;3.20;99.90
8892;DHT22;4482;54.332;10.118;2023-12-07T09:33:42;3.10;99.90
8892;DHT22;4482;54.332;10.118;2023-12-07T09:36:10;3.00;99.90
8892;DHT22;4482;54.332;10.118;2023-12-07T09:38:37;3.00;99.90
8892;DHT22;4482;54.332;10.118;2023-12-07T09:41:04;3.00;99.90
8892;DHT22;4482;54.332;10.118;2023-12-07T09:43:30;3.00;99.90
8892;DHT22;4482;54.332;10.118;2023-12-07T09:45:57;2.90;99.90
8892;DHT22;4482;54.332;10.118;2023-12-07T09:48:25;3.00;99.90
8892;DHT22;4482;54.332;10.118;2023-12-07T09:50:52;3.00;99.90
8892;DHT22;4482;54.332;10.118;2023-12-07T09:53:20;3.00;99.90
8892;DHT22;4482;54.332;10.118;2023-12-07T09:55:47;3.00;99.90
8892;DHT22;4482;54.332;10.118;2023-12-07T09:58:14;3.10;99.90
8892;DHT22;4482;54.332;10.118;2023-12-07T10:00:41;3.10;99.90
8892;DHT22;4482;54.332;10.118;2023-12-07T10:03:08;3.20;99.90
8892;DHT22;4482;54.332;10.118;2023-12-07T10:05:53;3.30;99.90
8892;DHT22;4482;54.332;10.118;2023-12-07T10:08:26;3.20;99.90
8892;DHT22;4482;54.332;10.118;2023-12-07T10:11:01;3.30;99.90
8892;DHT22;4482;54.332;10.118;2023-12-07T10:13:28;3.30;99.90
8892;DHT22;4482;54.332;10.118;2023-12-07T10:16:04;3.30;99.90
8892;DHT22;4482;54.332;10.118;2023-12-07T10:18:31;3.40;99.90
8892;DHT22;4482;54.332;10.118;2023-12-07T10:20:58;3.40;99.90
8892;DHT22;4482;54.332;10.118;2023-12-07T10:23:26;3.50;99.90
8892;DHT22;4482;54.332;10.118;2023-12-07T10:25:53;3.40;99.90
8892;DHT22;4482;54.332;10.118;2023-12-07T10:28:20;3.40;99.90
8892;DHT22;4482;54.332;10.118;2023-12-07T10:30:47;3.30;99.90
8892;DHT22;4482;54.332;10.118;2023-12-07T10:33:14;3.40;99.90
8892;DHT22;4482;54.332;10.118;2023-12-07T10:35:41;3.60;99.90
8892;DHT22;4482;54.332;10.118;2023-12-07T10:38:08;3.50;99.90
8892;DHT22;4482;54.332;10.118;2023-12-07T10:40:36;3.40;99.90
8892;DHT22;4482;54.332;10.118;2023-12-07T10:43:04;3.20;99.90
8892;DHT22;4482;54.332;10.118;2023-12-07T10:45:31;3.10;99.90
8892;DHT22;4482;54.332;10.118;2023-12-07T10:47:58;3.10;99.90
8892;DHT22;4482;54.332;10.118;2023-12-07T10:50:30;3.10;99.90
8892;DHT22;4482;54.332;10.118;2023-12-07T10:52:59;3.00;99.90
8892;DHT22;4482;54.332;10.118;2023-12-07T10:55:30;3.10;99.90
8892;DHT22;4482;54.332;10.118;2023-12-07T10:58:02;3.10;99.90
8892;DHT22;4482;54.332;10.118;2023-12-07T11:00:30;3.20;99.90
8892;DHT22;4482;54.332;10.118;2023-12-07T11:02:57;3.20;99.90
8892;DHT22;4482;54.332;10.118;2023-12-07T11:05:24;3.20;99.90
8892;DHT22;4482;54.332;10.118;2023-12-07T11:07:52;3.20;99.90
8892;DHT22;4482;54.332;10.118;2023-12-07T11:10:23;3.30;99.90
8892;DHT22;4482;54.332;10.118;2023-12-07T11:12:54;3.30;99.90
8892;DHT22;4482;54.332;10.118;2023-12-07T11:15:24;3.30;99.90
8892;DHT22;4482;54.332;10.118;2023-12-07T11:17:52;3.40;99.90
8892;DHT22;4482;54.332;10.118;2023-12-07T11:20:20;3.50;99.90
8892;DHT22;4482;54.332;10.118;2023-12-07T11:22:47;3.50;99.90
8892;DHT22;4482;54.332;10.118;2023-12-07T11:25:14;3.60;99.90
8892;DHT22;4482;54.332;10.118;2023-12-07T11:27:43;3.60;99.90
8892;DHT22;4482;54.332;10.118;2023-12-07T11:30:12;3.60;99.90
8892;DHT22;4482;54.332;10.118;2023-12-07T11:32:41;3.60;99.90
8892;DHT22;4482;54.332;10.118;2023-12-07T11:35:11;3.50;99.90
8892;DHT22;4482;54.332;10.118;2023-12-07T11:40:19;3.30;99.90
8892;DHT22;4482;54.332;10.118;2023-12-07T11:42:46;3.30;99.90
8892;DHT22;4482;54.332;10.118;2023-12-07T11:45:13;3.30;99.90
8892;DHT22;4482;54.332;10.118;2023-12-07T11:47:41;3.20;99.90
8892;DHT22;4482;54.332;10.118;2023-12-07T11:50:13;3.20;99.90
8892;DHT22;4482;54.332;10.118;2023-12-07T11:52:40;3.20;99.90
8892;DHT22;4482;54.332;10.118;2023-12-07T11:55:07;3.20;99.90
8892;DHT22;4482;54.332;10.118;2023-12-07T11:57:34;3.20;99.90
8892;DHT22;4482;54.332;10.118;2023-12-07T12:00:01;3.20;99.90
8892;DHT22;4482;54.332;10.118;2023-12-07T12:02:28;3.20;99.90
8892;DHT22;4482;54.332;10.118;2023-12-07T12:05:00;3.20;99.90
8892;DHT22;4482;54.332;10.118;2023-12-07T12:07:27;3.20;99.90
8892;DHT22;4482;54.332;10.118;2023-12-07T12:09:54;3.20;99.90
8892;DHT22;4482;54.332;10.118;2023-12-07T12:12:21;3.20;99.90
8892;DHT22;4482;54.332;10.118;2023-12-07T12:14:47;3.20;99.90
8892;DHT22;4482;54.332;10.118;2023-12-07T12:17:14;3.20;99.90
8892;DHT22;4482;54.332;10.118;2023-12-07T12:19:42;3.20;99.90
8892;DHT22;4482;54.332;10.118;2023-12-07T12:22:10;3.20;99.90
8892;DHT22;4482;54.332;10.118;2023-12-07T12:24:36;3.20;99.90
8892;DHT22;4482;54.332;10.118;2023-12-07T12:27:05;3.20;99.90
8892;DHT22;4482;54.332;10.118;2023-12-07T12:29:32;3.20;99.90
8892;DHT22;4482;54.332;10.118;2023-12-07T12:31:59;3.20;99.90
8892;DHT22;4482;54.332;10.118;2023-12-07T12:34:27;3.10;99.90
8892;DHT22;4482;54.332;10.118;2023-12-07T12:36:55;3.10;99.90
8892;DHT22;4482;54.332;10.118;2023-12-07T12:39:27;3.10;99.90
8892;DHT22;4482;54.332;10.118;2023-12-07T12:41:55;3.10;99.90
8892;DHT22;4482;54.332;10.118;2023-12-07T12:44:22;3.10;99.90
8892;DHT22;4482;54.332;10.118;2023-12-07T12:46:49;3.10;99.90
8892;DHT22;4482;54.332;10.118;2023-12-07T12:49:15;3.00;99.90
8892;DHT22;4482;54.332;10.118;2023-12-07T12:51:43;3.00;99.90
8892;DHT22;4482;54.332;10.118;2023-12-07T12:54:10;3.00;99.90
8892;DHT22;4482;54.332;10.118;2023-12-07T12:56:39;3.00;99.90
8892;DHT22;4482;54.332;10.118;2023-12-07T12:59:05;3.00;99.90
8892;DHT22;4482;54.332;10.118;2023-12-07T13:01:34;3.00;99.90
8892;DHT22;4482;54.332;10.118;2023-12-07T13:04:01;3.00;99.90
8892;DHT22;4482;54.332;10.118;2023-12-07T13:06:27;3.00;99.90
8892;DHT22;4482;54.332;10.118;2023-12-07T13:08:54;3.10;99.90
8892;DHT22;4482;54.332;10.118;2023-12-07T13:11:21;3.10;99.90
8892;DHT22;4482;54.332;10.118;2023-12-07T13:13:49;3.20;99.90
8892;DHT22;4482;54.332;10.118;2023-12-07T13:16:16;3.20;99.90
8892;DHT22;4482;54.332;10.118;2023-12-07T13:18:43;3.20;99.90
8892;DHT22;4482;54.332;10.118;2023-12-07T13:21:10;3.20;99.90
8892;DHT22;4482;54.332;10.118;2023-12-07T13:23:37;3.20;99.90
8892;DHT22;4482;54.332;10.118;2023-12-07T13:26:04;3.20;99.90
8892;DHT22;4482;54.332;10.118;2023-12-07T13:28:31;3.20;99.90
8892;DHT22;4482;54.332;10.118;2023-12-07T13:31:00;3.20;99.90
8892;DHT22;4482;54.332;10.118;2023-12-07T13:33:26;3.20;99.90
8892;DHT22;4482;54.332;10.118;2023-12-07T13:35:53;3.30;99.90
8892;DHT22;4482;54.332;10.118;2023-12-07T13:38:20;3.30;99.90
8892;DHT22;4482;54.332;10.118;2023-12-07T13:40:47;3.30;99.90
8892;DHT22;4482;54.332;10.118;2023-12-07T13:43:14;3.30;99.90
8892;DHT22;4482;54.332;10.118;2023-12-07T13:45:41;3.30;99.90
8892;DHT22;4482;54.332;10.118;2023-12-07T13:48:09;3.30;99.90
8892;DHT22;4482;54.332;10.118;2023-12-07T13:50:37;3.40;99.90
8892;DHT22;4482;54.332;10.118;2023-12-07T13:53:05;3.40;99.90
8892;DHT22;4482;54.332;10.118;2023-12-07T13:55:31;3.40;99.90
8892;DHT22;4482;54.332;10.118;2023-12-07T13:57:58;3.40;99.90
8892;DHT22;4482;54.332;10.118;2023-12-07T14:00:25;3.30;99.90
8892;DHT22;4482;54.332;10.118;2023-12-07T14:02:52;3.30;99.90
8892;DHT22;4482;54.332;10.118;2023-12-07T14:05:20;3.30;99.90
8892;DHT22;4482;54.332;10.118;2023-12-07T14:07:48;3.30;99.90
8892;DHT22;4482;54.332;10.118;2023-12-07T14:10:15;3.30;99.90
8892;DHT22;4482;54.332;10.118;2023-12-07T14:12:41;3.40;99.90
8892;DHT22;4482;54.332;10.118;2023-12-07T14:15:09;3.40;99.90
8892;DHT22;4482;54.332;10.118;2023-12-07T14:17:36;3.30;99.90
8892;DHT22;4482;54.332;10.118;2023-12-07T14:20:04;3.30;99.90
8892;DHT22;4482;54.332;10.118;2023-12-07T14:22:32;3.30;99.90
8892;DHT22;4482;54.332;10.118;2023-12-07T14:25:00;3.20;99.90
8892;DHT22;4482;54.332;10.118;2023-12-07T14:27:27;3.20;99.90
8892;DHT22;4482;54.332;10.118;2023-12-07T14:29:53;3.10;99.90
8892;DHT22;4482;54.332;10.118;2023-12-07T14:32:20;3.10;99.90
8892;DHT22;4482;54.332;10.118;2023-12-07T14:34:47;3.00;99.90
8892;DHT22;4482;54.332;10.118;2023-12-07T14:37:14;2.90;99.90
8892;DHT22;4482;54.332;10.118;2023-12-07T14:39:42;2.90;99.90
8892;DHT22;4482;54.332;10.118;2023-12-07T14:42:09;2.90;99.90
8892;DHT22;4482;54.332;10.118;2023-12-07T14:44:36;2.80;99.90
8892;DHT22;4482;54.332;10.118;2023-12-07T14:47:03;2.70;99.90
8892;DHT22;4482;54.332;10.118;2023-12-07T14:49:30;2.70;99.90
8892;DHT22;4482;54.332;10.118;2023-12-07T14:51:56;2.70;99.90
8892;DHT22;4482;54.332;10.118;2023-12-07T14:54:24;2.60;99.90
8892;DHT22;4482;54.332;10.118;2023-12-07T14:56:52;2.60;99.90
8892;DHT22;4482;54.332;10.118;2023-12-07T14:59:19;2.60;99.90
8892;DHT22;4482;54.332;10.118;2023-12-07T15:01:46;2.50;99.90
8892;DHT22;4482;54.332;10.118;2023-12-07T15:04:12;2.50;99.90
8892;DHT22;4482;54.332;10.118;2023-12-07T15:06:39;2.60;99.90
8892;DHT22;4482;54.332;10.118;2023-12-07T15:09:06;2.50;99.90
8892;DHT22;4482;54.332;10.118;2023-12-07T15:11:33;2.60;99.90
8892;DHT22;4482;54.332;10.118;2023-12-07T15:14:02;2.50;99.90
8892;DHT22;4482;54.332;10.118;2023-12-07T15:16:29;2.60;99.90
8892;DHT22;4482;54.332;10.118;2023-12-07T15:18:56;2.50;99.90
8892;DHT22;4482;54.332;10.118;2023-12-07T15:21:23;2.50;99.90
8892;DHT22;4482;54.332;10.118;2023-12-07T15:23:50;2.50;99.90
8892;DHT22;4482;54.332;10.118;2023-12-07T15:26:17;2.50;99.90
8892;DHT22;4482;54.332;10.118;2023-12-07T15:28:44;2.50;99.90
8892;DHT22;4482;54.332;10.118;2023-12-07T15:31:12;2.40;99.90
8892;DHT22;4482;54.332;10.118;2023-12-07T15:33:38;2.40;99.90
8892;DHT22;4482;54.332;10.118;2023-12-07T15:36:05;2.30;99.90
8892;DHT22;4482;54.332;10.118;2023-12-07T15:38:32;2.30;99.90
8892;DHT22;4482;54.332;10.118;2023-12-07T15:40:59;2.20;99.90
8892;DHT22;4482;54.332;10.118;2023-12-07T15:43:28;2.20;99.90
8892;DHT22;4482;54.332;10.118;2023-12-07T15:45:54;2.20;99.90
8892;DHT22;4482;54.332;10.118;2023-12-07T15:48:23;2.20;99.90
8892;DHT22;4482;54.332;10.118;2023-12-07T15:50:49;2.10;99.90
8892;DHT22;4482;54.332;10.118;2023-12-07T15:53:16;2.00;99.90
8892;DHT22;4482;54.332;10.118;2023-12-07T15:55:43;2.00;99.90
8892;DHT22;4482;54.332;10.118;2023-12-07T15:58:10;2.00;99.90
8892;DHT22;4482;54.332;10.118;2023-12-07T16:00:37;2.00;99.90
8892;DHT22;4482;54.332;10.118;2023-12-07T16:03:04;2.00;99.90
8892;DHT22;4482;54.332;10.118;2023-12-07T16:05:33;2.00;99.90